PIC Brief
Powered by WingX® Technology

WingX Pro7 for iPad now with IAP Routing   Click for AppStore

Airport Status Wx Images Instructions Send feedback
Apt, Navaid, Fix, Name, City, Route, FAR:
N-Number:

10CO - Mack Mesa

Communications
Location
Sectional:Denver
State:Colorado (CO)
City:3nm N of Mack
Latitude:39' 16" 5.200°N [39.268111°]
Longitude:108' 51" 50.500°W [-108.864028°]
Elevation:4,724'
Variation:13E
Map  Satellite  Hybrid
Attendance
All months, All days, Daylight
Services
Fuel Available:100LL
Airframe Repair:Major
Powerplant Repair:Major
Bottled Oxygen:None
Bulk Oxygen:None
Runways
7/252,600' x 60'Asphalt
Comments

Tower Comments

None

Comments

None
Charts
10CO Information
Temperature: 18°C (64°F)
Dewpoint: -5°C (23°F)
Density Altitude:6028' (+1304')
Hover over METAR or TAF to decode
METAR [18nm away]
KGJT 252153Z 32008KT 10SM CLR 18/M05 A3001 RMK AO2 SLP132 T01781050
TAF [18nm away]
KGJT 251721Z 2518/2618 25004KT P6SM FEW150
FM260200 35005KT P6SM SKC
FM260800 06004KT P6SM SKC
FM261700 12004KT P6SM FEW150
NOTAMS
Click here

RADAR

Satellite

VFR Sectional

IFR Chart

AIRMETs
Greetings, Professor Falken.
Copyright© Hilton Software LLC 2008-2016